Briefing drone pour Seyssins

Rechercher une autre localisation

Conditions de vol :


Nous sommes le : Dimanche 25 septembre 2022
Il est 23:36 UTC (01:36 LT)

Lever de soleil : 05:01 UTC (07:01 LT)
Coucher de soleil : 17:56 UTC (19:56 LT)

Météo

L'essentiel des conditions de vol

VIGILANCE MÉTÉO FRANCE - Isère (38)
Vigilance Jaune : Orages
CARTE TEMSI
CARTES DES FRONTS
METAR de LFLS
LFLS 242330Z AUTO 07005KT 9999 FEW064/// BKN096/// BKN110/// ///TCU 13/12 Q1013

Date d'émission: 24/09/2022
Heure d'émission: 23:30 UTC
Vent: 070° pour 5 KT (9 km/h)
Visibilité horizontale: > 10 km
Plafond :
- Peu de nuages à 6400ft (1951m)
- Nuages morcelés à 9600ft (2926m)
- Nuages morcelés à 11000ft (3353m)
Température: 13 °C
Point de rosée: 12 °C
Humidité: 94%
Pression (QNH): 1013 hPa
TAF de LFLS
LFLS 241904Z 2419/2515 CNL

Conditions prévues :

Heure d'émission : Bulletin éffectué le 24 à 19:00 UTC
Prévision : Valide du 24 a 19:00 UTC au 25 a 15:00 UTC
Nuages : à 0ft (0 m)
WEBCAM POUR SEYSSINS

Réglementation

Voler en sécurité

CARTES AERONAUTIQUE 1/500.000
CARTE AZBA (Reseau basse altitude)
CARTES VAC (LFLS)
SUP AIP




Chargement des AIP...
NOTAM (SEYSSINS + Terrain à proximité / FIR )




Chargement des NOTAMS...
CONTACT PREFECTURE 38


Avertissement : Les données mises à disposition sont indicatives. Oxygène Drone ne pourra être tenu responsable de dégâts causés aux biens et aux personnes.